sensor_id;sensor_type;location;lat;lon;timestamp;P1;durP1;ratioP1;P2;durP2;ratioP2
76837;SDS011;65797;47.352;8.164;2023-05-01T00:00:55;3.00;;;2.80;;
76837;SDS011;65797;47.352;8.164;2023-05-01T00:03:21;2.60;;;2.40;;
76837;SDS011;65797;47.352;8.164;2023-05-01T00:05:47;3.50;;;2.77;;
76837;SDS011;65797;47.352;8.164;2023-05-01T00:08:13;2.97;;;2.77;;
76837;SDS011;65797;47.352;8.164;2023-05-01T00:10:39;3.50;;;3.20;;
76837;SDS011;65797;47.352;8.164;2023-05-01T00:13:05;2.50;;;2.30;;
76837;SDS011;65797;47.352;8.164;2023-05-01T00:15:31;2.40;;;2.30;;
76837;SDS011;65797;47.352;8.164;2023-05-01T00:17:57;2.60;;;2.40;;
76837;SDS011;65797;47.352;8.164;2023-05-01T00:20:26;3.70;;;2.93;;
76837;SDS011;65797;47.352;8.164;2023-05-01T00:22:53;3.43;;;2.90;;
76837;SDS011;65797;47.352;8.164;2023-05-01T00:25:19;2.97;;;2.77;;
76837;SDS011;65797;47.352;8.164;2023-05-01T00:27:45;3.57;;;3.27;;
76837;SDS011;65797;47.352;8.164;2023-05-01T00:30:12;3.50;;;2.73;;
76837;SDS011;65797;47.352;8.164;2023-05-01T00:32:38;3.03;;;2.83;;
76837;SDS011;65797;47.352;8.164;2023-05-01T00:35:03;2.93;;;2.73;;
76837;SDS011;65797;47.352;8.164;2023-05-01T00:37:29;5.83;;;2.80;;
76837;SDS011;65797;47.352;8.164;2023-05-01T00:39:55;2.70;;;2.50;;
76837;SDS011;65797;47.352;8.164;2023-05-01T00:42:20;3.07;;;2.80;;
76837;SDS011;65797;47.352;8.164;2023-05-01T00:44:46;2.90;;;2.53;;
76837;SDS011;65797;47.352;8.164;2023-05-01T00:47:12;3.37;;;3.00;;
76837;SDS011;65797;47.352;8.164;2023-05-01T00:49:39;7.27;;;3.20;;
76837;SDS011;65797;47.352;8.164;2023-05-01T00:52:06;3.43;;;3.13;;
76837;SDS011;65797;47.352;8.164;2023-05-01T00:54:34;5.70;;;3.27;;
76837;SDS011;65797;47.352;8.164;2023-05-01T00:57:00;5.93;;;3.03;;
76837;SDS011;65797;47.352;8.164;2023-05-01T00:59:26;3.10;;;2.87;;
76837;SDS011;65797;47.352;8.164;2023-05-01T01:01:53;4.50;;;3.13;;
76837;SDS011;65797;47.352;8.164;2023-05-01T01:04:20;7.30;;;3.10;;
76837;SDS011;65797;47.352;8.164;2023-05-01T01:06:48;3.80;;;3.50;;
76837;SDS011;65797;47.352;8.164;2023-05-01T01:17:58;6.07;;;3.60;;
76837;SDS011;65797;47.352;8.164;2023-05-01T01:31:19;6.97;;;4.03;;
76837;SDS011;65797;47.352;8.164;2023-05-01T01:34:03;7.50;;;4.07;;
76837;SDS011;65797;47.352;8.164;2023-05-01T01:37:01;3.70;;;3.40;;
76837;SDS011;65797;47.352;8.164;2023-05-01T01:39:46;5.70;;;3.83;;
76837;SDS011;65797;47.352;8.164;2023-05-01T01:42:18;3.20;;;2.97;;
76837;SDS011;65797;47.352;8.164;2023-05-01T01:44:51;6.20;;;4.00;;
76837;SDS011;65797;47.352;8.164;2023-05-01T01:47:19;4.43;;;3.70;;
76837;SDS011;65797;47.352;8.164;2023-05-01T01:49:52;4.93;;;3.53;;
76837;SDS011;65797;47.352;8.164;2023-05-01T01:52:20;6.00;;;4.37;;
76837;SDS011;65797;47.352;8.164;2023-05-01T01:54:53;5.07;;;4.60;;
76837;SDS011;65797;47.352;8.164;2023-05-01T01:57:22;5.97;;;3.77;;
76837;SDS011;65797;47.352;8.164;2023-05-01T01:59:49;9.20;;;4.43;;
76837;SDS011;65797;47.352;8.164;2023-05-01T02:02:16;5.83;;;4.27;;
76837;SDS011;65797;47.352;8.164;2023-05-01T02:04:44;6.40;;;4.63;;
76837;SDS011;65797;47.352;8.164;2023-05-01T02:07:11;6.17;;;4.10;;
76837;SDS011;65797;47.352;8.164;2023-05-01T02:09:39;5.10;;;3.93;;
76837;SDS011;65797;47.352;8.164;2023-05-01T02:12:07;5.03;;;4.20;;
76837;SDS011;65797;47.352;8.164;2023-05-01T02:14:33;4.80;;;4.03;;
76837;SDS011;65797;47.352;8.164;2023-05-01T02:17:01;5.73;;;4.20;;
76837;SDS011;65797;47.352;8.164;2023-05-01T02:19:28;5.70;;;3.90;;
76837;SDS011;65797;47.352;8.164;2023-05-01T02:21:56;7.27;;;3.83;;
76837;SDS011;65797;47.352;8.164;2023-05-01T02:24:22;6.00;;;4.33;;
76837;SDS011;65797;47.352;8.164;2023-05-01T02:26:56;5.80;;;4.17;;
76837;SDS011;65797;47.352;8.164;2023-05-01T02:29:27;6.50;;;4.00;;
76837;SDS011;65797;47.352;8.164;2023-05-01T02:31:53;3.90;;;3.50;;
76837;SDS011;65797;47.352;8.164;2023-05-01T02:34:19;4.47;;;4.07;;
76837;SDS011;65797;47.352;8.164;2023-05-01T02:36:45;5.00;;;3.60;;
76837;SDS011;65797;47.352;8.164;2023-05-01T02:39:11;4.70;;;4.13;;
76837;SDS011;65797;47.352;8.164;2023-05-01T02:41:37;4.50;;;4.10;;
76837;SDS011;65797;47.352;8.164;2023-05-01T02:44:04;4.10;;;3.70;;
76837;SDS011;65797;47.352;8.164;2023-05-01T02:46:34;7.40;;;4.37;;
76837;SDS011;65797;47.352;8.164;2023-05-01T02:49:01;3.77;;;3.47;;
76837;SDS011;65797;47.352;8.164;2023-05-01T02:51:29;9.93;;;3.93;;
76837;SDS011;65797;47.352;8.164;2023-05-01T02:53:56;10.37;;;4.70;;
76837;SDS011;65797;47.352;8.164;2023-05-01T02:56:26;4.93;;;3.87;;
76837;SDS011;65797;47.352;8.164;2023-05-01T02:58:52;3.97;;;3.67;;
76837;SDS011;65797;47.352;8.164;2023-05-01T03:01:18;4.00;;;3.60;;
76837;SDS011;65797;47.352;8.164;2023-05-01T03:03:44;6.53;;;3.47;;
76837;SDS011;65797;47.352;8.164;2023-05-01T03:06:11;7.90;;;3.90;;
76837;SDS011;65797;47.352;8.164;2023-05-01T03:08:38;3.87;;;3.50;;
76837;SDS011;65797;47.352;8.164;2023-05-01T03:11:05;4.23;;;3.80;;
76837;SDS011;65797;47.352;8.164;2023-05-01T03:13:31;4.13;;;3.83;;
76837;SDS011;65797;47.352;8.164;2023-05-01T03:15:57;5.33;;;4.00;;
76837;SDS011;65797;47.352;8.164;2023-05-01T03:18:23;6.27;;;3.90;;
76837;SDS011;65797;47.352;8.164;2023-05-01T03:20:50;6.77;;;4.73;;
76837;SDS011;65797;47.352;8.164;2023-05-01T03:23:17;5.13;;;4.60;;
76837;SDS011;65797;47.352;8.164;2023-05-01T03:25:43;4.83;;;4.40;;
76837;SDS011;65797;47.352;8.164;2023-05-01T03:28:09;6.07;;;4.87;;
76837;SDS011;65797;47.352;8.164;2023-05-01T03:30:35;6.17;;;5.10;;
76837;SDS011;65797;47.352;8.164;2023-05-01T03:33:01;6.00;;;5.10;;
76837;SDS011;65797;47.352;8.164;2023-05-01T03:35:26;6.40;;;4.80;;
76837;SDS011;65797;47.352;8.164;2023-05-01T03:37:52;5.87;;;4.60;;
76837;SDS011;65797;47.352;8.164;2023-05-01T03:40:18;4.83;;;4.43;;
76837;SDS011;65797;47.352;8.164;2023-05-01T03:42:43;5.07;;;4.57;;
76837;SDS011;65797;47.352;8.164;2023-05-01T03:45:09;4.87;;;4.40;;
76837;SDS011;65797;47.352;8.164;2023-05-01T03:47:35;9.30;;;4.80;;
76837;SDS011;65797;47.352;8.164;2023-05-01T03:50:01;5.87;;;5.27;;
76837;SDS011;65797;47.352;8.164;2023-05-01T03:52:27;4.87;;;4.43;;
76837;SDS011;65797;47.352;8.164;2023-05-01T03:54:53;4.97;;;4.20;;
76837;SDS011;65797;47.352;8.164;2023-05-01T03:57:18;5.57;;;5.00;;
76837;SDS011;65797;47.352;8.164;2023-05-01T03:59:50;7.13;;;4.93;;
76837;SDS011;65797;47.352;8.164;2023-05-01T04:02:17;7.53;;;5.23;;
76837;SDS011;65797;47.352;8.164;2023-05-01T04:04:42;6.93;;;4.37;;
76837;SDS011;65797;47.352;8.164;2023-05-01T04:07:08;6.70;;;5.17;;
76837;SDS011;65797;47.352;8.164;2023-05-01T04:09:34;5.87;;;5.27;;
76837;SDS011;65797;47.352;8.164;2023-05-01T04:12:00;6.63;;;5.23;;
76837;SDS011;65797;47.352;8.164;2023-05-01T04:14:29;5.50;;;5.00;;
76837;SDS011;65797;47.352;8.164;2023-05-01T04:16:55;5.87;;;5.30;;
76837;SDS011;65797;47.352;8.164;2023-05-01T04:19:21;5.87;;;5.30;;
76837;SDS011;65797;47.352;8.164;2023-05-01T04:21:47;6.93;;;4.90;;
76837;SDS011;65797;47.352;8.164;2023-05-01T04:24:13;7.30;;;4.70;;
76837;SDS011;65797;47.352;8.164;2023-05-01T04:26:40;5.47;;;4.70;;
76837;SDS011;65797;47.352;8.164;2023-05-01T04:29:07;7.23;;;4.60;;
76837;SDS011;65797;47.352;8.164;2023-05-01T04:31:33;7.47;;;5.87;;
76837;SDS011;65797;47.352;8.164;2023-05-01T04:33:59;6.37;;;5.57;;
76837;SDS011;65797;47.352;8.164;2023-05-01T04:36:25;5.50;;;5.00;;
76837;SDS011;65797;47.352;8.164;2023-05-01T04:38:50;6.47;;;5.30;;
76837;SDS011;65797;47.352;8.164;2023-05-01T04:41:16;5.73;;;4.77;;
76837;SDS011;65797;47.352;8.164;2023-05-01T04:43:42;5.53;;;5.03;;
76837;SDS011;65797;47.352;8.164;2023-05-01T04:46:08;4.93;;;4.30;;
76837;SDS011;65797;47.352;8.164;2023-05-01T04:48:34;5.97;;;4.93;;
76837;SDS011;65797;47.352;8.164;2023-05-01T04:51:00;6.70;;;4.83;;
76837;SDS011;65797;47.352;8.164;2023-05-01T04:53:27;5.43;;;4.93;;
76837;SDS011;65797;47.352;8.164;2023-05-01T04:55:53;6.10;;;5.10;;
76837;SDS011;65797;47.352;8.164;2023-05-01T04:58:19;5.47;;;4.97;;
76837;SDS011;65797;47.352;8.164;2023-05-01T05:00:45;5.30;;;4.67;;
76837;SDS011;65797;47.352;8.164;2023-05-01T05:03:11;4.87;;;4.47;;
76837;SDS011;65797;47.352;8.164;2023-05-01T05:05:36;6.10;;;4.90;;
76837;SDS011;65797;47.352;8.164;2023-05-01T05:08:02;5.57;;;4.80;;
76837;SDS011;65797;47.352;8.164;2023-05-01T05:10:28;4.60;;;4.20;;
76837;SDS011;65797;47.352;8.164;2023-05-01T05:12:55;5.07;;;4.40;;
76837;SDS011;65797;47.352;8.164;2023-05-01T18:37:07;3.47;;;1.40;;
76837;SDS011;65797;47.352;8.164;2023-05-01T18:42:08;2.77;;;1.97;;
76837;SDS011;65797;47.352;8.164;2023-05-01T18:44:34;3.77;;;1.50;;
76837;SDS011;65797;47.352;8.164;2023-05-01T18:46:59;2.30;;;1.90;;
76837;SDS011;65797;47.352;8.164;2023-05-01T18:49:25;2.00;;;1.30;;
76837;SDS011;65797;47.352;8.164;2023-05-01T18:51:51;1.80;;;1.60;;
76837;SDS011;65797;47.352;8.164;2023-05-01T18:54:16;2.00;;;1.33;;
76837;SDS011;65797;47.352;8.164;2023-05-01T18:56:42;1.70;;;1.60;;
76837;SDS011;65797;47.352;8.164;2023-05-01T18:59:08;1.60;;;1.50;;
76837;SDS011;65797;47.352;8.164;2023-05-01T19:01:35;2.57;;;1.60;;
76837;SDS011;65797;47.352;8.164;2023-05-01T19:04:01;1.57;;;1.47;;
76837;SDS011;65797;47.352;8.164;2023-05-01T19:06:27;3.30;;;1.80;;
76837;SDS011;65797;47.352;8.164;2023-05-01T19:08:53;4.00;;;2.80;;
76837;SDS011;65797;47.352;8.164;2023-05-01T19:11:19;1.43;;;1.33;;
76837;SDS011;65797;47.352;8.164;2023-05-01T19:13:45;1.30;;;1.20;;
76837;SDS011;65797;47.352;8.164;2023-05-01T19:16:12;5.23;;;1.73;;
76837;SDS011;65797;47.352;8.164;2023-05-01T19:18:38;2.30;;;1.63;;
76837;SDS011;65797;47.352;8.164;2023-05-01T19:21:04;3.30;;;1.70;;
76837;SDS011;65797;47.352;8.164;2023-05-01T19:23:29;5.67;;;1.80;;
76837;SDS011;65797;47.352;8.164;2023-05-01T19:26:08;3.00;;;1.60;;
76837;SDS011;65797;47.352;8.164;2023-05-01T19:28:33;4.40;;;1.93;;
76837;SDS011;65797;47.352;8.164;2023-05-01T19:30:59;2.40;;;1.77;;
76837;SDS011;65797;47.352;8.164;2023-05-01T19:33:25;1.83;;;1.63;;
76837;SDS011;65797;47.352;8.164;2023-05-01T19:35:51;2.40;;;1.77;;
76837;SDS011;65797;47.352;8.164;2023-05-01T19:38:17;2.10;;;1.93;;
76837;SDS011;65797;47.352;8.164;2023-05-01T19:40:42;3.43;;;1.57;;
76837;SDS011;65797;47.352;8.164;2023-05-01T19:43:09;1.70;;;1.60;;
76837;SDS011;65797;47.352;8.164;2023-05-01T19:45:37;1.43;;;1.33;;
76837;SDS011;65797;47.352;8.164;2023-05-01T19:48:03;1.97;;;1.80;;
76837;SDS011;65797;47.352;8.164;2023-05-01T19:50:30;1.73;;;1.57;;
76837;SDS011;65797;47.352;8.164;2023-05-01T19:52:56;1.53;;;1.43;;
76837;SDS011;65797;47.352;8.164;2023-05-01T19:57:58;1.77;;;1.67;;
76837;SDS011;65797;47.352;8.164;2023-05-01T20:00:24;1.70;;;1.60;;
76837;SDS011;65797;47.352;8.164;2023-05-01T20:02:51;1.40;;;1.30;;
76837;SDS011;65797;47.352;8.164;2023-05-01T20:05:17;2.00;;;1.90;;
76837;SDS011;65797;47.352;8.164;2023-05-01T20:07:43;2.00;;;1.80;;
76837;SDS011;65797;47.352;8.164;2023-05-01T20:10:09;3.00;;;1.53;;
76837;SDS011;65797;47.352;8.164;2023-05-01T20:12:35;6.10;;;1.60;;
76837;SDS011;65797;47.352;8.164;2023-05-01T20:15:01;1.83;;;1.73;;
76837;SDS011;65797;47.352;8.164;2023-05-01T20:17:27;1.80;;;1.70;;
76837;SDS011;65797;47.352;8.164;2023-05-01T20:19:52;1.90;;;1.80;;
76837;SDS011;65797;47.352;8.164;2023-05-01T20:22:18;3.10;;;2.10;;
76837;SDS011;65797;47.352;8.164;2023-05-01T20:24:44;1.93;;;1.83;;
76837;SDS011;65797;47.352;8.164;2023-05-01T20:27:10;2.43;;;2.20;;
76837;SDS011;65797;47.352;8.164;2023-05-01T20:29:36;6.80;;;1.87;;
76837;SDS011;65797;47.352;8.164;2023-05-01T20:32:03;2.10;;;2.00;;
76837;SDS011;65797;47.352;8.164;2023-05-01T20:34:29;4.70;;;1.60;;
76837;SDS011;65797;47.352;8.164;2023-05-01T20:36:55;4.57;;;1.80;;
76837;SDS011;65797;47.352;8.164;2023-05-01T20:39:21;2.13;;;1.97;;
76837;SDS011;65797;47.352;8.164;2023-05-01T20:41:46;3.70;;;2.30;;
76837;SDS011;65797;47.352;8.164;2023-05-01T20:44:12;1.80;;;1.70;;
76837;SDS011;65797;47.352;8.164;2023-05-01T20:46:38;5.53;;;2.27;;
76837;SDS011;65797;47.352;8.164;2023-05-01T20:49:04;4.07;;;1.93;;
76837;SDS011;65797;47.352;8.164;2023-05-01T20:51:32;2.23;;;2.00;;
76837;SDS011;65797;47.352;8.164;2023-05-01T20:53:58;2.10;;;1.90;;
76837;SDS011;65797;47.352;8.164;2023-05-01T20:56:24;1.87;;;1.77;;
76837;SDS011;65797;47.352;8.164;2023-05-01T20:58:49;3.03;;;1.73;;
76837;SDS011;65797;47.352;8.164;2023-05-01T21:01:15;2.30;;;1.93;;
76837;SDS011;65797;47.352;8.164;2023-05-01T21:03:41;2.13;;;1.73;;
76837;SDS011;65797;47.352;8.164;2023-05-01T21:06:07;2.00;;;1.90;;
76837;SDS011;65797;47.352;8.164;2023-05-01T21:08:32;11.27;;;2.20;;
76837;SDS011;65797;47.352;8.164;2023-05-01T21:10:59;2.90;;;2.00;;
76837;SDS011;65797;47.352;8.164;2023-05-01T21:13:25;1.83;;;1.67;;
76837;SDS011;65797;47.352;8.164;2023-05-01T21:15:52;4.40;;;2.27;;
76837;SDS011;65797;47.352;8.164;2023-05-01T21:18:18;2.03;;;1.90;;
76837;SDS011;65797;47.352;8.164;2023-05-01T21:20:45;1.60;;;1.50;;
76837;SDS011;65797;47.352;8.164;2023-05-01T21:23:13;2.10;;;2.00;;
76837;SDS011;65797;47.352;8.164;2023-05-01T21:25:41;2.40;;;2.10;;
76837;SDS011;65797;47.352;8.164;2023-05-01T21:28:10;2.07;;;1.97;;
76837;SDS011;65797;47.352;8.164;2023-05-01T21:30:37;5.30;;;2.00;;
76837;SDS011;65797;47.352;8.164;2023-05-01T21:33:04;3.50;;;1.90;;
76837;SDS011;65797;47.352;8.164;2023-05-01T21:35:31;2.13;;;2.03;;
76837;SDS011;65797;47.352;8.164;2023-05-01T21:37:57;4.13;;;2.30;;
76837;SDS011;65797;47.352;8.164;2023-05-01T21:40:24;1.80;;;1.70;;
76837;SDS011;65797;47.352;8.164;2023-05-01T21:42:52;2.27;;;2.07;;
76837;SDS011;65797;47.352;8.164;2023-05-01T21:45:18;2.30;;;1.87;;
76837;SDS011;65797;47.352;8.164;2023-05-01T21:47:45;3.53;;;1.97;;
76837;SDS011;65797;47.352;8.164;2023-05-01T21:50:15;1.67;;;1.57;;
76837;SDS011;65797;47.352;8.164;2023-05-01T21:52:43;2.47;;;2.30;;
76837;SDS011;65797;47.352;8.164;2023-05-01T21:55:11;2.10;;;1.90;;
76837;SDS011;65797;47.352;8.164;2023-05-01T21:57:43;7.83;;;2.13;;
76837;SDS011;65797;47.352;8.164;2023-05-01T22:00:09;5.50;;;2.17;;
76837;SDS011;65797;47.352;8.164;2023-05-01T22:02:44;2.30;;;2.20;;
76837;SDS011;65797;47.352;8.164;2023-05-01T22:05:15;1.67;;;1.57;;
76837;SDS011;65797;47.352;8.164;2023-05-01T22:07:43;2.33;;;2.17;;
76837;SDS011;65797;47.352;8.164;2023-05-01T22:10:10;2.60;;;2.40;;
76837;SDS011;65797;47.352;8.164;2023-05-01T22:12:38;2.43;;;2.23;;
76837;SDS011;65797;47.352;8.164;2023-05-01T22:15:05;9.20;;;2.07;;
76837;SDS011;65797;47.352;8.164;2023-05-01T22:17:32;1.87;;;1.77;;
76837;SDS011;65797;47.352;8.164;2023-05-01T22:19:57;2.47;;;2.27;;
76837;SDS011;65797;47.352;8.164;2023-05-01T22:22:23;2.30;;;2.10;;
76837;SDS011;65797;47.352;8.164;2023-05-01T22:27:24;3.83;;;2.20;;
76837;SDS011;65797;47.352;8.164;2023-05-01T22:37:36;4.03;;;2.20;;
76837;SDS011;65797;47.352;8.164;2023-05-01T22:40:02;2.20;;;1.97;;
76837;SDS011;65797;47.352;8.164;2023-05-01T22:42:28;4.30;;;1.67;;
76837;SDS011;65797;47.352;8.164;2023-05-01T22:44:54;2.77;;;1.90;;
76837;SDS011;65797;47.352;8.164;2023-05-01T22:47:20;4.13;;;2.40;;
76837;SDS011;65797;47.352;8.164;2023-05-01T22:49:45;2.00;;;1.90;;
76837;SDS011;65797;47.352;8.164;2023-05-01T22:52:11;2.77;;;2.10;;
76837;SDS011;65797;47.352;8.164;2023-05-01T22:54:37;4.30;;;2.00;;
76837;SDS011;65797;47.352;8.164;2023-05-01T22:57:03;3.97;;;2.03;;
76837;SDS011;65797;47.352;8.164;2023-05-01T22:59:28;2.03;;;1.87;;
76837;SDS011;65797;47.352;8.164;2023-05-01T23:01:54;2.23;;;2.07;;
76837;SDS011;65797;47.352;8.164;2023-05-01T23:04:20;2.63;;;2.30;;
76837;SDS011;65797;47.352;8.164;2023-05-01T23:06:45;4.30;;;2.20;;
76837;SDS011;65797;47.352;8.164;2023-05-01T23:09:11;2.10;;;2.00;;
76837;SDS011;65797;47.352;8.164;2023-05-01T23:11:36;2.47;;;2.27;;
76837;SDS011;65797;47.352;8.164;2023-05-01T23:14:04;2.27;;;2.07;;
76837;SDS011;65797;47.352;8.164;2023-05-01T23:16:30;4.27;;;1.97;;
76837;SDS011;65797;47.352;8.164;2023-05-01T23:19:03;2.03;;;1.90;;
76837;SDS011;65797;47.352;8.164;2023-05-01T23:21:29;2.27;;;2.17;;
76837;SDS011;65797;47.352;8.164;2023-05-01T23:23:55;2.40;;;2.30;;
76837;SDS011;65797;47.352;8.164;2023-05-01T23:26:24;2.30;;;2.10;;
76837;SDS011;65797;47.352;8.164;2023-05-01T23:32:08;5.97;;;2.00;;
76837;SDS011;65797;47.352;8.164;2023-05-01T23:34:42;2.30;;;2.10;;
76837;SDS011;65797;47.352;8.164;2023-05-01T23:37:07;2.20;;;2.10;;
76837;SDS011;65797;47.352;8.164;2023-05-01T23:39:33;7.10;;;2.50;;
76837;SDS011;65797;47.352;8.164;2023-05-01T23:41:59;1.70;;;1.60;;
76837;SDS011;65797;47.352;8.164;2023-05-01T23:44:25;2.30;;;2.10;;
76837;SDS011;65797;47.352;8.164;2023-05-01T23:46:51;2.13;;;2.00;;
76837;SDS011;65797;47.352;8.164;2023-05-01T23:49:16;1.97;;;1.77;;
76837;SDS011;65797;47.352;8.164;2023-05-01T23:51:43;2.30;;;2.10;;
76837;SDS011;65797;47.352;8.164;2023-05-01T23:54:09;2.83;;;1.87;;
76837;SDS011;65797;47.352;8.164;2023-05-01T23:56:34;6.50;;;2.57;;
76837;SDS011;65797;47.352;8.164;2023-05-01T23:59:00;2.60;;;2.40;;
